Time;durP1;ratioP1;P1;durP2;ratioP2;P2;SDS_P1;SDS_P2;PMS_P1;PMS_P2;Temp;Humidity;BMP_temperature;BMP_pressure;BME280_temperature;BME280_humidity;BME280_pressure;Samples;Min_cycle;Max_cycle;Signal;HPM_P1;HPM_P2
2023/08/14 00:00:18;;;;;;;;;;;;;;;-140.72;100.00;52646.53;6277824;22;19911;-68
2023/08/14 00:02:43;;;;;;;;;;;;;;;-140.72;100.00;52664.81;6277709;22;19934;-68
2023/08/14 00:05:09;;;;;;;;;;;;;;;-140.72;100.00;52666.84;6277336;22;19918;-68
2023/08/14 00:07:34;;;;;;;;;;;;;;;-140.72;100.00;52713.50;6277764;22;19930;-68
2023/08/14 00:09:59;;;;;;;;;;;;;;;-140.72;100.00;52654.66;6301660;22;19911;-68
2023/08/14 00:12:24;;;;;;;;;;;;;;;-140.72;100.00;52685.09;6277609;22;20224;-68
2023/08/14 00:14:49;;;;;;;;;;;;;;;-140.72;100.00;52656.69;6277318;22;19911;-68
2023/08/14 00:17:15;;;;;;;;;;;;;;;-140.72;100.00;52672.91;6277667;22;19919;-68
2023/08/14 00:19:40;;;;;;;;;;;;;;;-140.72;100.00;52687.13;6281742;22;20221;-68
2023/08/14 00:22:05;;;;;;;;;;;;;;;-140.72;100.00;52674.94;6276769;22;19921;-68
2023/08/14 00:24:30;;;;;;;;;;;;;;;-140.72;100.00;52679.00;6276048;22;19976;-67
2023/08/14 00:26:56;;;;;;;;;;;;;;;-140.72;100.00;52695.25;6277759;22;20383;-67
2023/08/14 00:29:21;;;;;;;;;;;;;;;-140.72;100.00;52664.81;6277700;22;19911;-68
2023/08/14 00:31:46;;;;;;;;;;;;;;;-140.72;100.00;52666.84;6277409;22;19918;-67
2023/08/14 00:34:11;;;;;;;;;;;;;;;-140.72;100.00;52691.19;6278575;22;19990;-67
2023/08/14 00:36:36;;;;;;;;;;;;;;;-140.72;100.00;52683.06;6277670;22;19919;-68
2023/08/14 00:39:03;;;;;;;;;;;;;;;-140.72;100.00;52691.19;6277422;22;19934;-68
2023/08/14 00:41:28;;;;;;;;;;;;;;;-140.72;100.00;52648.56;6277862;22;19964;-67
2023/08/14 00:43:53;;;;;;;;;;;;;;;-140.72;100.00;52695.25;6277443;22;19962;-67
2023/08/14 00:46:19;;;;;;;;;;;;;;;-140.72;100.00;52707.41;6301341;22;19911;-67
2023/08/14 00:48:44;;;;;;;;;;;;;;;-140.72;100.00;52666.84;6277374;22;19911;-67
2023/08/14 00:51:22;;;;;;;;;;;;;;;-140.72;100.00;52691.19;6301323;22;19942;-67
2023/08/14 00:53:48;;;;;;;;;;;;;;;-140.72;100.00;52662.78;6275757;22;20318;-67
2023/08/14 00:56:14;;;;;;;;;;;;;;;-140.72;100.00;52668.84;6275159;22;19922;-67
2023/08/14 00:58:39;;;;;;;;;;;;;;;-140.72;100.00;52658.72;6277009;22;19986;-67
2023/08/14 01:01:05;;;;;;;;;;;;;;;-140.72;100.00;52695.25;6277238;22;19994;-67
2023/08/14 01:03:31;;;;;;;;;;;;;;;-140.72;100.00;52644.50;6277395;22;19961;-67
2023/08/14 01:05:57;;;;;;;;;;;;;;;-140.72;100.00;52697.28;6276786;22;19915;-67
2023/08/14 01:08:22;;;;;;;;;;;;;;;-140.72;100.00;52652.63;6276838;22;19915;-67
2023/08/14 01:11:12;;;;;;;;;;;;;;;-140.72;100.00;52703.34;6276986;22;19965;-67
2023/08/14 01:13:41;;;;;;;;;;;;;;;-140.72;100.00;52656.69;6300692;22;19922;-67
2023/08/14 01:16:10;;;;;;;;;;;;;;;-140.72;100.00;52715.53;6276652;22;20236;-67
2023/08/14 01:18:36;;;;;;;;;;;;;;;-140.72;100.00;52683.06;6276186;22;20293;-67
2023/08/14 01:21:17;;;;;;;;;;;;;;;-140.72;100.00;52636.38;6280496;22;19912;-67
2023/08/14 01:23:42;;;;;;;;;;;;;;;-140.72;100.00;52695.25;6277014;22;19911;-67
2023/08/14 01:26:08;;;;;;;;;;;;;;;-140.72;100.00;52709.44;6276800;22;20242;-67
2023/08/14 01:28:33;;;;;;;;;;;;;;;-140.72;100.00;52689.16;6277243;22;19918;-67
2023/08/14 01:30:58;;;;;;;;;;;;;;;-140.72;100.00;52711.47;6276837;22;19964;-67
2023/08/14 01:33:23;;;;;;;;;;;;;;;-140.72;100.00;52707.41;6276466;22;19986;-67
2023/08/14 01:35:56;;;;;;;;;;;;;;;-140.72;100.00;52672.91;6276751;22;19912;-67
2023/08/14 01:38:25;;;;;;;;;;;;;;;-140.72;100.00;52731.75;6276423;22;19911;-67
2023/08/14 01:40:56;;;;;;;;;;;;;;;-140.72;100.00;52695.25;6276929;22;19915;-67
2023/08/14 01:43:24;;;;;;;;;;;;;;;-140.72;100.00;52695.25;6276670;22;19911;-67
2023/08/14 01:45:51;;;;;;;;;;;;;;;-140.72;100.00;52674.94;6275525;22;19916;-67
2023/08/14 01:48:24;;;;;;;;;;;;;;;-140.72;100.00;52668.84;6273428;22;19916;-68
2023/08/14 01:50:51;;;;;;;;;;;;;;;-140.72;100.00;52687.13;6276406;22;19911;-68
2023/08/14 01:53:17;;;;;;;;;;;;;;;-140.72;100.00;52697.28;6277335;22;20426;-68
2023/08/14 01:55:43;;;;;;;;;;;;;;;-140.72;100.00;52658.72;6276457;22;19916;-68
2023/08/14 01:58:08;;;;;;;;;;;;;;;-140.72;100.00;52691.19;6276923;22;19917;-68
2023/08/14 02:00:34;;;;;;;;;;;;;;;-140.72;100.00;52707.41;6277084;22;19911;-68
2023/08/14 02:03:00;;;;;;;;;;;;;;;-140.72;100.00;52670.88;6277881;22;19918;-67
2023/08/14 02:05:25;;;;;;;;;;;;;;;-140.72;100.00;52721.63;6300740;22;19994;-67
2023/08/14 02:07:50;;;;;;;;;;;;;;;-140.72;100.00;52662.78;6276552;22;19951;-67
2023/08/14 02:10:16;;;;;;;;;;;;;;;-140.72;100.00;52707.41;6276852;22;19915;-66
2023/08/14 02:12:41;;;;;;;;;;;;;;;-140.72;100.00;52687.13;6276847;22;20025;-67
2023/08/14 02:15:06;;;;;;;;;;;;;;;-140.72;100.00;52666.84;6275007;22;19911;-67
2023/08/14 02:17:31;;;;;;;;;;;;;;;-140.72;100.00;52709.44;6277100;22;19911;-67
2023/08/14 02:20:03;;;;;;;;;;;;;;;-140.72;100.00;52707.41;6278847;22;19915;-67
2023/08/14 02:22:28;;;;;;;;;;;;;;;-140.72;100.00;52666.84;6277410;22;19912;-67
2023/08/14 02:24:54;;;;;;;;;;;;;;;-140.72;100.00;52733.78;6276337;22;19916;-67
2023/08/14 02:27:19;;;;;;;;;;;;;;;-140.72;100.00;52715.53;6276718;22;19911;-67
2023/08/14 02:29:44;;;;;;;;;;;;;;;-140.72;100.00;52711.47;6276628;22;19911;-67
2023/08/14 02:32:10;;;;;;;;;;;;;;;-140.72;100.00;52731.75;6276785;22;20221;-67
2023/08/14 02:34:38;;;;;;;;;;;;;;;-140.72;100.00;52737.84;6276286;22;20308;-68
2023/08/14 02:37:03;;;;;;;;;;;;;;;-140.72;100.00;52681.03;6277245;22;20002;-67
2023/08/14 02:39:28;;;;;;;;;;;;;;;-140.72;100.00;52729.75;6275967;22;19943;-67
2023/08/14 02:41:53;;;;;;;;;;;;;;;-140.72;100.00;52697.28;6276417;22;19911;-67
2023/08/14 02:44:19;;;;;;;;;;;;;;;-140.72;100.00;52687.13;6276828;22;19986;-67
2023/08/14 02:46:45;;;;;;;;;;;;;;;-140.72;100.00;52707.41;6299601;22;19945;-67
2023/08/14 02:49:11;;;;;;;;;;;;;;;-140.72;100.00;52709.44;6276243;22;19915;-67
2023/08/14 02:51:36;;;;;;;;;;;;;;;-140.72;100.00;52719.59;6276411;22;20251;-67
2023/08/14 02:54:01;;;;;;;;;;;;;;;-140.72;100.00;52693.22;6276123;22;20286;-67
2023/08/14 02:56:26;;;;;;;;;;;;;;;-140.72;100.00;52687.13;6276523;22;20278;-67
2023/08/14 02:58:52;;;;;;;;;;;;;;;-140.72;100.00;52741.91;6276633;22;20239;-67
2023/08/14 03:01:17;;;;;;;;;;;;;;;-140.72;100.00;52672.91;6276368;22;19915;-67
2023/08/14 03:03:42;;;;;;;;;;;;;;;-140.72;100.00;52713.50;6302199;22;20303;-67
2023/08/14 03:06:08;;;;;;;;;;;;;;;-140.72;100.00;52691.19;6278176;22;20272;-67
2023/08/14 03:08:33;;;;;;;;;;;;;;;-140.72;100.00;52689.16;6278657;22;20205;-67
2023/08/14 03:10:58;;;;;;;;;;;;;;;-140.72;100.00;52725.69;6278110;22;19912;-67
2023/08/14 03:13:24;;;;;;;;;;;;;;;-140.72;100.00;52695.25;6277986;22;19911;-67
2023/08/14 03:15:49;;;;;;;;;;;;;;;-140.72;100.00;52739.88;6278157;22;19918;-67
2023/08/14 03:18:14;;;;;;;;;;;;;;;-140.72;100.00;52674.94;6276660;22;19934;-67
2023/08/14 03:20:40;;;;;;;;;;;;;;;-140.72;100.00;52719.59;6280928;22;20332;-67
2023/08/14 03:23:06;;;;;;;;;;;;;;;-140.72;100.00;52760.19;6278333;22;19919;-67
2023/08/14 03:25:31;;;;;;;;;;;;;;;-140.72;100.00;52709.44;6302378;22;20332;-67
2023/08/14 03:27:56;;;;;;;;;;;;;;;-140.72;100.00;52695.25;6278221;22;19922;-67
2023/08/14 03:30:22;;;;;;;;;;;;;;;-140.72;100.00;52709.44;6301967;22;20389;-67
2023/08/14 03:32:47;;;;;;;;;;;;;;;-140.72;100.00;52727.72;6276488;22;19998;-68
2023/08/14 03:35:12;;;;;;;;;;;;;;;-140.72;100.00;52733.78;6278359;22;19934;-67
2023/08/14 03:37:37;;;;;;;;;;;;;;;-140.72;100.00;52717.56;6278278;22;19961;-67
2023/08/14 03:40:03;;;;;;;;;;;;;;;-140.72;100.00;52727.72;6277825;22;19911;-67
2023/08/14 03:42:28;;;;;;;;;;;;;;;-140.72;100.00;52756.13;6277454;22;19965;-67
2023/08/14 03:44:53;;;;;;;;;;;;;;;-140.72;100.00;52697.28;6302041;22;19934;-67
2023/08/14 03:47:18;;;;;;;;;;;;;;;-140.72;100.00;52715.53;6277584;22;19943;-68
2023/08/14 03:49:44;;;;;;;;;;;;;;;-140.72;100.00;52743.94;6277805;22;19919;-67
2023/08/14 03:52:09;;;;;;;;;;;;;;;-140.72;100.00;52743.94;6277830;22;19912;-68
2023/08/14 03:54:34;;;;;;;;;;;;;;;-140.72;100.00;52741.91;6275904;22;19949;-68
2023/08/14 03:56:59;;;;;;;;;;;;;;;-140.72;100.00;52735.81;6301550;22;20286;-67
2023/08/14 03:59:25;;;;;;;;;;;;;;;-140.72;100.00;52741.91;6277569;22;20286;-67
2023/08/14 04:01:50;;;;;;;;;;;;;;;-140.72;100.00;52768.28;6277582;22;20337;-67
2023/08/14 04:04:15;;;;;;;;;;;;;;;-140.72;100.00;52687.13;6277691;22;19990;-67
2023/08/14 04:06:42;;;;;;;;;;;;;;;-140.72;100.00;52739.88;6277468;22;19961;-67
2023/08/14 04:09:09;;;;;;;;;;;;;;;-140.72;100.00;52689.16;6277785;22;19915;-67
2023/08/14 04:11:34;;;;;;;;;;;;;;;-140.72;100.00;52703.34;6277236;22;19934;-67
2023/08/14 04:14:00;;;;;;;;;;;;;;;-140.72;100.00;52679.00;6277309;22;19915;-67
2023/08/14 04:16:41;;;;;;;;;;;;;;;-140.72;100.00;52687.13;6276999;22;19923;-67
2023/08/14 04:19:06;;;;;;;;;;;;;;;-140.72;100.00;52754.09;6277821;22;20332;-67
2023/08/14 04:21:31;;;;;;;;;;;;;;;-140.72;100.00;52695.25;6280098;22;19969;-67
2023/08/14 04:23:56;;;;;;;;;;;;;;;-140.72;100.00;52741.91;6276940;22;19919;-68
2023/08/14 04:26:22;;;;;;;;;;;;;;;-140.72;100.00;52721.63;6277338;22;19911;-67
2023/08/14 04:28:47;;;;;;;;;;;;;;;-140.72;100.00;52687.13;6277080;22;19961;-67
2023/08/14 04:31:12;;;;;;;;;;;;;;;-140.72;100.00;52721.63;6277050;22;19994;-67
2023/08/14 04:33:37;;;;;;;;;;;;;;;-140.72;100.00;52719.59;6301119;22;19942;-67
2023/08/14 04:36:02;;;;;;;;;;;;;;;-140.72;100.00;52685.09;6277496;22;19911;-68
2023/08/14 04:38:28;;;;;;;;;;;;;;;-140.72;100.00;52733.78;6277320;22;19911;-68
2023/08/14 04:40:53;;;;;;;;;;;;;;;-140.72;100.00;52739.88;6277537;22;19911;-68
2023/08/14 04:43:18;;;;;;;;;;;;;;;-140.72;100.00;52715.53;6277130;22;20243;-68
2023/08/14 04:45:43;;;;;;;;;;;;;;;-140.72;100.00;52662.78;6277031;22;19911;-68
2023/08/14 04:48:09;;;;;;;;;;;;;;;-140.72;100.00;52748.00;6276857;22;19945;-68
2023/08/14 04:50:34;;;;;;;;;;;;;;;-140.72;100.00;52685.09;6277324;22;19911;-68
2023/08/14 04:52:59;;;;;;;;;;;;;;;-140.72;100.00;52679.00;6276617;22;20244;-68
2023/08/14 04:55:24;;;;;;;;;;;;;;;-140.72;100.00;52658.72;6274856;22;19912;-68
2023/08/14 04:57:50;;;;;;;;;;;;;;;-140.72;100.00;52709.44;6275178;22;19961;-68
2023/08/14 05:00:15;;;;;;;;;;;;;;;-140.72;100.00;52679.00;6276913;22;19965;-68
2023/08/14 05:02:41;;;;;;;;;;;;;;;-140.72;100.00;52731.75;6277093;22;20289;-68
2023/08/14 05:05:13;;;;;;;;;;;;;;;-140.72;100.00;52707.41;6301056;22;19950;-68
2023/08/14 05:07:39;;;;;;;;;;;;;;;-140.72;100.00;52674.94;6277210;22;19911;-68
2023/08/14 05:10:05;;;;;;;;;;;;;;;-140.72;100.00;52715.53;6276791;22;19912;-68
2023/08/14 05:12:31;;;;;;;;;;;;;;;-140.72;100.00;52715.53;6277155;22;20041;-68
2023/08/14 05:14:56;;;;;;;;;;;;;;;-140.72;100.00;52741.91;6276489;22;19951;-68
2023/08/14 05:17:21;;;;;;;;;;;;;;;-140.72;100.00;52672.91;6276856;22;19911;-68
2023/08/14 05:19:46;;;;;;;;;;;;;;;-140.72;100.00;52654.66;6276864;22;19911;-68
2023/08/14 05:22:11;;;;;;;;;;;;;;;-140.72;100.00;52705.38;6280967;22;19986;-68
2023/08/14 05:24:37;;;;;;;;;;;;;;;-140.72;100.00;52699.31;6277809;22;19911;-68
2023/08/14 05:27:02;;;;;;;;;;;;;;;-140.72;100.00;52666.84;6276980;22;19963;-67
2023/08/14 05:29:27;;;;;;;;;;;;;;;-140.72;100.00;52670.88;6276721;22;19920;-68
2023/08/14 05:31:52;;;;;;;;;;;;;;;-140.72;100.00;52668.84;6276887;22;19918;-68
2023/08/14 05:34:17;;;;;;;;;;;;;;;-140.72;100.00;52715.53;6276312;22;20316;-68
2023/08/14 05:36:43;;;;;;;;;;;;;;;-140.72;100.00;52691.19;6276465;22;19964;-68
2023/08/14 05:39:08;;;;;;;;;;;;;;;-140.72;100.00;52697.28;6276723;22;19912;-68
2023/08/14 05:41:34;;;;;;;;;;;;;;;-140.72;100.00;52662.78;6276660;22;19964;-68
2023/08/14 05:43:59;;;;;;;;;;;;;;;-140.72;100.00;52648.56;6275041;22;19946;-68
2023/08/14 05:46:24;;;;;;;;;;;;;;;-140.72;100.00;52660.75;6276376;22;20269;-69
2023/08/14 05:48:50;;;;;;;;;;;;;;;-140.72;100.00;52618.13;6276504;22;20276;-71
2023/08/14 05:51:16;;;;;;;;;;;;;;;-140.72;100.00;52638.41;6276504;22;19922;-69
2023/08/14 05:53:41;;;;;;;;;;;;;;;-140.72;100.00;52703.34;6276564;22;19911;-68
2023/08/14 05:56:06;;;;;;;;;;;;;;;-140.72;100.00;52644.50;6274734;22;19916;-74
2023/08/14 05:58:31;;;;;;;;;;;;;;;-140.72;100.00;52668.84;6276730;22;19917;-69
2023/08/14 06:00:57;;;;;;;;;;;;;;;-140.72;100.00;52672.91;6278128;22;19914;-70
2023/08/14 06:03:22;;;;;;;;;;;;;;;-140.72;100.00;52654.66;6275206;22;19939;-69
2023/08/14 06:05:47;;;;;;;;;;;;;;;-140.72;100.00;52662.78;6301999;22;19908;-71
2023/08/14 06:08:12;;;;;;;;;;;;;;;-140.72;100.00;52707.41;6276543;22;19911;-69
2023/08/14 06:10:38;;;;;;;;;;;;;;;-140.72;100.00;52652.63;6276416;22;19960;-72
2023/08/14 06:13:03;;;;;;;;;;;;;;;-140.72;100.00;52646.53;6276827;22;19958;-72
2023/08/14 06:15:29;;;;;;;;;;;;;;;-140.72;100.00;52640.44;6276977;22;19911;-71
2023/08/14 06:17:54;;;;;;;;;;;;;;;-140.72;100.00;52630.31;6301187;22;20435;-72
2023/08/14 06:20:20;;;;;;;;;;;;;;;-140.72;100.00;52626.25;6278687;22;20343;-72
2023/08/14 06:22:46;;;;;;;;;;;;;;;-140.72;100.00;52628.28;6279997;22;19911;-72
2023/08/14 06:25:12;;;;;;;;;;;;;;;-140.72;100.00;52644.50;6275956;22;19911;-75
2023/08/14 06:27:37;;;;;;;;;;;;;;;-140.72;100.00;52640.44;6276279;22;19919;-70
2023/08/14 06:30:02;;;;;;;;;;;;;;;-140.72;100.00;52636.38;6276176;22;19912;-68
2023/08/14 06:32:28;;;;;;;;;;;;;;;-140.72;100.00;52626.25;6274279;22;19917;-67
2023/08/14 06:34:53;;;;;;;;;;;;;;;-140.72;100.00;52620.16;6277700;22;19918;-67
2023/08/14 06:37:18;;;;;;;;;;;;;;;-140.72;100.00;52628.28;6302193;22;19918;-67
2023/08/14 06:39:43;;;;;;;;;;;;;;;-140.72;100.00;52626.25;6276528;22;19990;-67
2023/08/14 06:42:08;;;;;;;;;;;;;;;-140.72;100.00;52597.84;6277809;22;19915;-67
2023/08/14 06:44:34;;;;;;;;;;;;;;;-140.72;100.00;52607.97;6278077;22;19933;-67
2023/08/14 06:46:59;;;;;;;;;;;;;;;-140.72;100.00;52646.53;6277858;22;19922;-67
2023/08/14 06:49:25;;;;;;;;;;;;;;;-140.72;100.00;52622.19;6276646;22;19946;-68
2023/08/14 06:51:50;;;;;;;;;;;;;;;-140.72;100.00;52674.94;6277297;22;20499;-71
2023/08/14 06:54:15;;;;;;;;;;;;;;;-140.72;100.00;52638.41;6277231;22;20336;-69
2023/08/14 06:56:40;;;;;;;;;;;;;;;-140.72;100.00;52612.03;6278189;22;20312;-69
2023/08/14 06:59:05;;;;;;;;;;;;;;;-140.72;100.00;52597.84;6277889;22;19990;-69
2023/08/14 07:01:31;;;;;;;;;;;;;;;-140.72;100.00;52601.91;6276792;22;20248;-69
2023/08/14 07:03:56;;;;;;;;;;;;;;;-140.72;100.00;52595.81;6276916;22;20308;-68
2023/08/14 07:06:21;;;;;;;;;;;;;;;-140.72;100.00;52565.38;6275661;22;20335;-69
2023/08/14 07:08:46;;;;;;;;;;;;;;;-140.72;100.00;52551.16;6277057;22;19921;-69
2023/08/14 07:11:11;;;;;;;;;;;;;;;-140.72;100.00;52553.19;6276735;22;20258;-69
2023/08/14 07:13:37;;;;;;;;;;;;;;;-140.72;100.00;52555.22;6276441;22;19915;-70
2023/08/14 07:16:02;;;;;;;;;;;;;;;-140.72;100.00;52545.06;6276788;22;19965;-70
2023/08/14 07:18:27;;;;;;;;;;;;;;;-140.72;100.00;52589.72;6276982;22;19919;-69
2023/08/14 07:20:53;;;;;;;;;;;;;;;-140.72;100.00;52541.03;6271812;22;20312;-69
2023/08/14 07:23:19;;;;;;;;;;;;;;;-140.72;100.00;52551.16;6279097;22;19990;-69
2023/08/14 07:25:44;;;;;;;;;;;;;;;-140.72;100.00;52577.53;6277214;22;19939;-69
2023/08/14 07:28:10;;;;;;;;;;;;;;;-140.72;100.00;52545.06;6275148;22;19916;-70
2023/08/14 07:30:36;;;;;;;;;;;;;;;-140.72;100.00;52557.25;6277236;22;19998;-70
2023/08/14 07:33:01;;;;;;;;;;;;;;;-140.72;95.67;52547.09;6277030;22;20293;-70
2023/08/14 07:35:26;;;;;;;;;;;;;;;-140.72;93.65;52571.47;6275890;22;19918;-68
2023/08/14 07:37:52;;;;;;;;;;;;;;;-140.72;89.73;52563.34;6276977;22;19911;-68
2023/08/14 07:40:18;;;;;;;;;;;;;;;-140.72;87.62;52573.50;6274733;22;20232;-68
2023/08/14 07:42:43;;;;;;;;;;;;;;;-140.72;82.36;52589.72;6276882;22;19911;-69
2023/08/14 07:45:08;;;;;;;;;;;;;;;-140.72;73.18;52549.13;6274957;22;19990;-69
2023/08/14 07:47:34;;;;;;;;;;;;;;;-140.72;52.89;52543.03;6275806;22;19916;-69
2023/08/14 07:49:59;;;;;;;;;;;;;;;-140.72;45.16;52577.53;6276997;22;20387;-69
2023/08/14 07:52:27;;;;;;;;;;;;;;;-140.72;44.79;52569.44;6300278;22;20274;-70
2023/08/14 07:54:52;;;;;;;;;;;;;;;-140.72;47.03;52549.13;6276163;22;19922;-69
2023/08/14 07:57:17;;;;;;;;;;;;;;;-140.72;28.66;52553.19;6275133;22;20240;-72
2023/08/14 07:59:44;;;;;;;;;;;;;;;-140.72;11.41;52543.03;6275532;22;20546;-70
2023/08/14 08:02:09;;;;;;;;;;;;;;;-140.72;0.00;52520.72;6277401;22;19922;-69
2023/08/14 08:04:36;;;;;;;;;;;;;;;-140.72;0.00;52555.22;6276224;22;19987;-71
2023/08/14 08:07:02;;;;;;;;;;;;;;;-140.72;0.00;52498.41;6275238;22;19950;-70
2023/08/14 08:09:27;;;;;;;;;;;;;;;-140.72;0.00;52514.63;6276047;22;19911;-69
2023/08/14 08:11:52;;;;;;;;;;;;;;;-140.72;0.00;52490.28;6276977;22;19927;-70
2023/08/14 08:14:18;;;;;;;;;;;;;;;-140.72;0.00;52500.44;6276455;22;19915;-69
2023/08/14 08:16:44;;;;;;;;;;;;;;;-140.72;0.00;52484.19;6275542;22;19911;-67
2023/08/14 08:19:09;;;;;;;;;;;;;;;-140.72;0.00;52500.44;6274618;22;19919;-67
2023/08/14 08:21:36;;;;;;;;;;;;;;;-140.72;0.00;52490.28;6300422;22;19998;-67
2023/08/14 08:24:01;;;;;;;;;;;;;;;-140.72;0.00;52480.16;6276118;22;19911;-67
2023/08/14 08:26:27;;;;;;;;;;;;;;;-140.72;0.00;52449.72;6276030;22;19911;-68
2023/08/14 08:28:52;;;;;;;;;;;;;;;-140.72;0.00;52447.69;6274785;22;19990;-67
2023/08/14 08:31:17;;;;;;;;;;;;;;;-140.72;0.00;52451.72;6276466;22;19961;-67
2023/08/14 08:33:42;;;;;;;;;;;;;;;-140.72;0.00;52431.44;6275729;22;19912;-67
2023/08/14 08:36:08;;;;;;;;;;;;;;;-140.72;0.00;52423.31;6276516;22;19912;-67
2023/08/14 08:38:33;;;;;;;;;;;;;;;-140.72;0.00;52407.09;6275612;22;20012;-67
2023/08/14 08:41:00;;;;;;;;;;;;;;;-140.72;0.00;52403.03;6274651;22;19922;-67
2023/08/14 08:43:26;;;;;;;;;;;;;;;-140.72;0.00;52417.25;6274142;22;20323;-67
2023/08/14 08:45:54;;;;;;;;;;;;;;;-140.72;0.00;52403.03;6274650;22;19918;-66
2023/08/14 08:48:21;;;;;;;;;;;;;;;-140.72;0.00;52411.16;6272305;22;19935;-68
2023/08/14 08:50:47;;;;;;;;;;;;;;;-140.72;0.00;52360.44;6274082;22;19919;-67
2023/08/14 08:53:13;;;;;;;;;;;;;;;-140.72;0.00;52352.31;6297526;22;20193;-67
2023/08/14 08:55:39;;;;;;;;;;;;;;;-140.72;0.00;52398.97;6300325;22;19950;-67
2023/08/14 08:58:05;;;;;;;;;;;;;;;-140.72;0.00;52356.38;6274646;22;19915;-67
2023/08/14 09:00:30;;;;;;;;;;;;;;;-140.72;0.00;52362.44;6276429;22;19966;-67
2023/08/14 09:02:56;;;;;;;;;;;;;;;-140.72;0.00;52390.84;6274780;22;19915;-67
2023/08/14 09:05:21;;;;;;;;;;;;;;;-140.72;0.00;52362.44;6277048;22;19915;-67
2023/08/14 09:07:47;;;;;;;;;;;;;;;-140.72;0.00;52330.00;6276599;22;20295;-67
2023/08/14 09:10:12;;;;;;;;;;;;;;;-140.72;0.00;52301.59;6275316;22;20248;-67
2023/08/14 09:12:37;;;;;;;;;;;;;;;-140.72;0.00;52287.38;6274904;22;19919;-67
2023/08/14 09:15:04;;;;;;;;;;;;;;;-140.72;0.00;52358.41;6301072;22;20016;-67
2023/08/14 09:17:29;;;;;;;;;;;;;;;-140.72;0.00;52299.56;6274814;22;19918;-67
2023/08/14 09:19:54;;;;;;;;;;;;;;;-140.72;0.00;52301.59;6276672;22;19915;-67
2023/08/14 09:22:19;;;;;;;;;;;;;;;-140.72;0.00;52321.88;6276054;22;19916;-68
2023/08/14 09:24:47;;;;;;;;;;;;;;;-140.72;0.00;52305.63;6276954;22;20343;-68
2023/08/14 09:27:13;;;;;;;;;;;;;;;-140.72;0.00;52285.34;6274484;22;19919;-68
2023/08/14 09:29:38;;;;;;;;;;;;;;;-140.72;0.00;52275.19;6274515;22;19911;-68
2023/08/14 09:32:04;;;;;;;;;;;;;;;-140.72;0.00;52299.56;6276080;22;19911;-68
2023/08/14 09:34:30;;;;;;;;;;;;;;;-140.72;0.00;52250.84;6300144;22;19911;-67
2023/08/14 09:36:57;;;;;;;;;;;;;;;-140.72;0.00;52171.72;6276071;22;20315;-68
2023/08/14 09:39:23;;;;;;;;;;;;;;;-140.72;0.00;52206.22;6276607;22;19947;-67
2023/08/14 09:41:49;;;;;;;;;;;;;;;-140.72;0.00;52214.34;6276285;22;19977;-68
2023/08/14 09:44:14;;;;;;;;;;;;;;;-140.72;0.00;52204.19;6276303;22;19912;-68
2023/08/14 09:46:40;;;;;;;;;;;;;;;-140.72;0.00;52256.94;6275570;22;19919;-68
2023/08/14 09:49:05;;;;;;;;;;;;;;;-140.72;0.00;52220.41;6276053;22;20247;-68
2023/08/14 09:51:31;;;;;;;;;;;;;;;-140.72;0.00;52194.03;6275672;22;19911;-68
2023/08/14 09:53:57;;;;;;;;;;;;;;;-140.72;0.00;52200.13;6273950;22;19978;-68
2023/08/14 09:56:23;;;;;;;;;;;;;;;-140.72;0.00;52139.25;6273648;22;19915;-68
2023/08/14 09:58:48;;;;;;;;;;;;;;;-140.72;0.00;52090.56;6274864;22;19919;-68
2023/08/14 10:01:14;;;;;;;;;;;;;;;-140.72;0.00;52118.97;6274834;22;19907;-68
2023/08/14 10:03:41;;;;;;;;;;;;;;;-140.72;0.00;52116.94;6275855;22;19934;-68
2023/08/14 10:06:07;;;;;;;;;;;;;;;-140.72;0.00;52208.25;6275851;22;20272;-68
2023/08/14 10:08:34;;;;;;;;;;;;;;;-140.72;0.00;52224.47;6276524;22;19918;-68
2023/08/14 10:11:01;;;;;;;;;;;;;;;-140.72;0.00;52167.66;6277729;22;19907;-68
2023/08/14 10:13:28;;;;;;;;;;;;;;;-140.72;0.00;52204.19;6277467;22;20227;-67
2023/08/14 10:15:55;;;;;;;;;;;;;;;-140.72;0.00;52220.41;6277497;22;20266;-68
2023/08/14 10:18:22;;;;;;;;;;;;;;;-140.72;0.00;52171.72;6277649;22;20048;-68
2023/08/14 10:20:48;;;;;;;;;;;;;;;-140.72;0.00;52129.13;6275688;22;19935;-67
2023/08/14 10:23:14;;;;;;;;;;;;;;;-140.72;0.00;52123.03;6276528;22;19911;-67
2023/08/14 10:25:40;;;;;;;;;;;;;;;-140.72;0.00;52076.34;6276006;22;19938;-67
2023/08/14 10:28:05;;;;;;;;;;;;;;;-140.72;0.00;52086.50;6276364;22;19919;-67
2023/08/14 10:30:31;;;;;;;;;;;;;;;-140.72;0.00;52072.31;6277620;22;19942;-67
2023/08/14 10:32:56;;;;;;;;;;;;;;;-140.72;0.00;52045.94;6277965;22;19915;-67
2023/08/14 10:35:25;;;;;;;;;;;;;;;-140.72;0.00;52045.94;6276237;22;19915;-67
2023/08/14 10:37:51;;;;;;;;;;;;;;;-140.72;0.00;52114.91;6278226;22;19933;-67
2023/08/14 10:40:19;;;;;;;;;;;;;;;-140.72;0.00;52070.28;6278193;22;19912;-68
2023/08/14 10:42:45;;;;;;;;;;;;;;;-140.72;0.00;52062.16;6275673;22;19911;-68
2023/08/14 10:45:11;;;;;;;;;;;;;;;-140.72;0.00;52133.16;6277529;22;19986;-68
2023/08/14 10:47:41;;;;;;;;;;;;;;;-140.72;0.00;52054.03;6278090;22;19951;-68
2023/08/14 10:50:38;;;;;;;;;;;;;;;-140.72;0.00;52015.50;6277288;22;19919;-68
2023/08/14 10:53:06;;;;;;;;;;;;;;;-140.72;0.00;52049.97;6225993;22;19912;-66
2023/08/14 10:55:34;;;;;;;;;;;;;;;-140.72;0.00;52045.94;6277621;22;19947;-67
2023/08/14 10:57:59;;;;;;;;;;;;;;;-140.72;0.00;51985.06;6277102;22;19911;-67
2023/08/14 11:00:25;;;;;;;;;;;;;;;-140.72;0.00;51948.53;6277617;22;19994;-67
2023/08/14 11:03:11;;;;;;;;;;;;;;;-140.72;0.00;51934.34;6275663;22;19911;-67
2023/08/14 11:05:37;;;;;;;;;;;;;;;-140.72;0.00;51956.66;6278049;22;19919;-67
2023/08/14 11:08:03;;;;;;;;;;;;;;;-140.72;0.00;52035.78;6276722;22;19921;-67
2023/08/14 11:10:28;;;;;;;;;;;;;;;-140.72;0.00;51964.78;6277212;22;19911;-67
2023/08/14 11:12:55;;;;;;;;;;;;;;;-140.72;0.00;52086.50;6301159;22;20347;-67
2023/08/14 11:15:21;;;;;;;;;;;;;;;-140.72;0.00;52037.81;6277385;22;19998;-67
2023/08/14 11:17:47;;;;;;;;;;;;;;;-140.72;0.00;51968.81;6276809;22;19951;-67
2023/08/14 11:20:12;;;;;;;;;;;;;;;-140.72;0.00;51914.03;6274389;22;19918;-67
2023/08/14 11:22:38;;;;;;;;;;;;;;;-140.72;0.00;51948.53;6276652;22;19912;-67
2023/08/14 11:25:05;;;;;;;;;;;;;;;-140.72;0.00;51944.47;6276808;22;19912;-67
2023/08/14 11:27:30;;;;;;;;;;;;;;;-140.72;0.00;51867.38;6276947;22;20350;-67
2023/08/14 11:29:55;;;;;;;;;;;;;;;-140.72;0.00;51867.38;6275479;22;19915;-67
2023/08/14 11:32:20;;;;;;;;;;;;;;;-140.72;0.00;51893.75;6276241;22;19918;-68
2023/08/14 11:34:46;;;;;;;;;;;;;;;-140.72;0.00;51843.03;6276808;22;20295;-67
2023/08/14 11:37:11;;;;;;;;;;;;;;;-140.72;0.00;51778.13;6276407;22;19949;-67
2023/08/14 11:39:36;;;;;;;;;;;;;;;-140.72;0.00;51818.69;6277255;22;19911;-68
2023/08/14 11:42:03;;;;;;;;;;;;;;;-140.72;0.00;51974.91;6275959;22;19954;-67
2023/08/14 11:44:28;;;;;;;;;;;;;;;-140.72;0.00;51891.72;6276481;22;19911;-67
2023/08/14 11:46:53;;;;;;;;;;;;;;;-140.72;0.00;51950.56;6276371;22;19986;-67
2023/08/14 11:49:18;;;;;;;;;;;;;;;-140.72;0.00;51940.41;6277319;22;19949;-67
2023/08/14 11:51:44;;;;;;;;;;;;;;;-140.72;0.00;51974.91;6275662;22;20370;-67
2023/08/14 11:54:10;;;;;;;;;;;;;;;-140.72;0.00;51976.94;6276860;22;19911;-67
2023/08/14 11:56:37;;;;;;;;;;;;;;;-140.72;0.00;52129.13;6300421;22;19937;-66
2023/08/14 11:59:02;;;;;;;;;;;;;;;-140.72;0.00;52098.69;6276705;22;20248;-67
2023/08/14 12:01:27;;;;;;;;;;;;;;;-140.72;0.00;51966.81;6276601;22;19911;-67
2023/08/14 12:03:53;;;;;;;;;;;;;;;-140.72;0.00;52007.38;6277085;22;19949;-67
2023/08/14 12:06:18;;;;;;;;;;;;;;;-140.72;0.00;52110.84;6276761;22;19911;-67
2023/08/14 12:08:43;;;;;;;;;;;;;;;-140.72;0.00;52092.59;6277651;22;19934;-67
2023/08/14 12:11:08;;;;;;;;;;;;;;;-140.72;0.00;52027.66;6301233;22;19982;-67
2023/08/14 12:13:34;;;;;;;;;;;;;;;-140.72;0.00;51952.59;6277480;22;19912;-68
2023/08/14 12:16:06;;;;;;;;;;;;;;;-140.72;0.00;51851.16;6274999;22;20391;-67